createdAt,value
2022-08-16T00:00:49.301Z,2.87
2022-08-16T00:03:26.136Z,3.00
2022-08-16T00:06:00.150Z,3.50
2022-08-16T00:08:36.751Z,3.30
2022-08-16T00:11:15.158Z,3.00
2022-08-16T00:13:56.940Z,3.27
2022-08-16T00:17:06.598Z,2.90
2022-08-16T00:19:24.795Z,3.10
2022-08-16T00:22:06.746Z,3.27
2022-08-16T00:24:38.611Z,3.47
2022-08-16T00:27:11.058Z,3.20
2022-08-16T00:29:39.588Z,3.30
2022-08-16T00:32:18.022Z,3.40
2022-08-16T00:34:53.232Z,3.27
2022-08-16T00:37:58.539Z,3.43
2022-08-16T00:40:35.019Z,2.80
2022-08-16T00:43:19.314Z,3.40
2022-08-16T00:46:22.231Z,3.33
2022-08-16T00:49:17.759Z,3.20
2022-08-16T00:51:54.878Z,3.40
2022-08-16T00:54:29.784Z,3.03
2022-08-16T00:57:05.826Z,3.37
2022-08-16T00:59:54.823Z,3.27
2022-08-16T01:02:33.303Z,3.83
2022-08-16T01:05:10.822Z,3.43
2022-08-16T01:07:50.864Z,3.57
2022-08-16T01:10:32.226Z,3.43
2022-08-16T01:13:08.527Z,3.40
2022-08-16T01:15:48.432Z,3.43
2022-08-16T01:18:40.029Z,3.20
2022-08-16T01:21:34.735Z,3.27
2022-08-16T01:24:52.613Z,3.13
2022-08-16T01:27:18.718Z,3.40
2022-08-16T01:30:19.488Z,3.30
2022-08-16T01:33:01.862Z,3.40
2022-08-16T01:35:37.466Z,3.60
2022-08-16T01:38:28.345Z,3.10
2022-08-16T01:41:21.616Z,3.67
2022-08-16T01:43:54.759Z,3.60
2022-08-16T01:46:39.709Z,3.30
2022-08-16T01:49:12.683Z,3.40
2022-08-16T01:51:45.675Z,3.17
2022-08-16T01:54:17.155Z,3.07
2022-08-16T01:57:02.590Z,3.33
2022-08-16T01:59:35.155Z,3.33
2022-08-16T02:02:22.200Z,3.20
2022-08-16T02:05:00.408Z,2.90
2022-08-16T02:07:33.534Z,3.30
2022-08-16T02:10:04.960Z,3.10
2022-08-16T02:12:50.817Z,3.13
2022-08-16T02:15:26.946Z,2.90
2022-08-16T02:18:02.612Z,2.90
2022-08-16T02:20:35.566Z,3.20
2022-08-16T02:23:13.348Z,3.40
2022-08-16T02:25:52.708Z,3.20
2022-08-16T02:28:28.911Z,2.80
2022-08-16T02:31:01.057Z,3.30
2022-08-16T02:33:43.418Z,3.50
2022-08-16T02:36:47.097Z,3.43
2022-08-16T02:39:07.485Z,3.30
2022-08-16T02:41:39.825Z,3.50
2022-08-16T02:44:11.057Z,3.07
2022-08-16T02:46:50.571Z,3.43
2022-08-16T02:49:21.294Z,3.30
2022-08-16T02:51:54.472Z,3.23
2022-08-16T02:57:10.443Z,2.87
2022-08-16T02:59:39.793Z,3.20
2022-08-16T03:02:10.540Z,3.20
2022-08-16T03:04:50.925Z,3.23
2022-08-16T03:07:27.632Z,3.13
2022-08-16T03:10:00.967Z,3.07
2022-08-16T03:12:58.403Z,3.10
2022-08-16T03:15:27.776Z,2.90
2022-08-16T03:17:58.647Z,2.97
2022-08-16T03:20:32.608Z,3.13
2022-08-16T03:23:06.432Z,2.90
2022-08-16T03:25:43.302Z,3.13
2022-08-16T03:28:17.825Z,3.00
2022-08-16T03:30:49.243Z,2.80
2022-08-16T03:33:20.438Z,2.80
2022-08-16T03:35:57.078Z,3.00
2022-08-16T03:38:32.471Z,3.17
2022-08-16T03:41:17.196Z,3.07
2022-08-16T03:44:02.619Z,3.00
2022-08-16T03:46:47.984Z,2.77
2022-08-16T03:49:36.615Z,3.10
2022-08-16T03:52:07.258Z,2.80
2022-08-16T03:54:36.339Z,2.70
2022-08-16T03:57:11.486Z,2.90
2022-08-16T03:59:47.424Z,3.00
2022-08-16T04:02:31.164Z,2.93
2022-08-16T04:05:03.963Z,2.80
2022-08-16T04:07:37.067Z,3.13
2022-08-16T04:10:35.500Z,3.10
2022-08-16T04:13:04.514Z,3.03
2022-08-16T04:15:41.088Z,3.13
2022-08-16T04:18:10.425Z,2.90
2022-08-16T04:20:41.628Z,2.90
2022-08-16T04:23:15.331Z,3.10
2022-08-16T04:25:47.013Z,2.87
2022-08-16T04:28:54.397Z,2.93
2022-08-16T04:31:10.729Z,2.90
2022-08-16T04:33:38.374Z,2.80
2022-08-16T04:36:20.570Z,2.87
2022-08-16T04:38:52.438Z,2.70
2022-08-16T04:41:32.483Z,3.07
2022-08-16T04:44:02.672Z,2.80
2022-08-16T04:47:02.706Z,2.90
2022-08-16T04:49:46.642Z,2.80
2022-08-16T04:52:33.644Z,2.70
2022-08-16T04:55:06.393Z,2.90
2022-08-16T04:57:37.782Z,2.47
2022-08-16T05:00:32.098Z,2.93
2022-08-16T05:03:09.483Z,2.80
2022-08-16T05:05:45.438Z,2.87
2022-08-16T05:08:31.264Z,2.57
2022-08-16T05:11:05.768Z,2.57
2022-08-16T05:13:41.657Z,2.50
2022-08-16T05:19:19.726Z,2.73
2022-08-16T05:21:51.599Z,2.80
2022-08-16T05:24:24.813Z,2.87
2022-08-16T05:26:56.774Z,2.77
2022-08-16T05:30:00.013Z,2.67
2022-08-16T05:32:32.986Z,2.60
2022-08-16T05:35:10.872Z,2.97
2022-08-16T05:37:47.271Z,2.50
2022-08-16T05:40:21.157Z,3.00
2022-08-16T05:42:55.505Z,2.80
2022-08-16T05:45:32.252Z,2.80
2022-08-16T05:48:11.945Z,2.53
2022-08-16T05:50:43.988Z,2.67
2022-08-16T05:53:16.852Z,2.83
2022-08-16T05:55:48.170Z,2.73
2022-08-16T05:58:31.816Z,2.97
2022-08-16T06:01:06.362Z,2.60
2022-08-16T06:03:37.365Z,2.70
2022-08-16T06:06:08.576Z,2.80
2022-08-16T06:08:46.398Z,3.00
2022-08-16T06:11:22.346Z,2.87
2022-08-16T06:13:56.482Z,2.50
2022-08-16T06:16:30.757Z,3.07
2022-08-16T06:19:00.007Z,2.90
2022-08-16T06:21:36.963Z,3.00
2022-08-16T06:24:53.327Z,2.80
2022-08-16T06:27:05.555Z,3.03
2022-08-16T06:29:41.095Z,3.50
2022-08-16T06:32:26.183Z,2.90
2022-08-16T06:35:02.029Z,3.40
2022-08-16T06:37:37.452Z,3.20
2022-08-16T06:40:12.415Z,3.60
2022-08-16T06:42:55.357Z,3.30
2022-08-16T06:45:31.073Z,3.07
2022-08-16T06:48:00.574Z,3.37
2022-08-16T06:50:32.730Z,3.27
2022-08-16T06:53:09.648Z,3.30
2022-08-16T06:55:40.781Z,3.40
2022-08-16T06:58:22.020Z,3.87
2022-08-16T07:00:58.110Z,3.67
2022-08-16T07:03:32.511Z,4.87
2022-08-16T07:06:27.105Z,4.93
2022-08-16T07:08:59.223Z,5.50
2022-08-16T07:11:45.561Z,5.20
2022-08-16T07:14:23.746Z,5.60
2022-08-16T07:16:59.243Z,5.00
2022-08-16T07:20:02.889Z,5.63
2022-08-16T07:22:37.834Z,5.23
2022-08-16T07:25:17.718Z,6.00
2022-08-16T07:27:50.495Z,4.90
2022-08-16T07:30:45.857Z,5.70
2022-08-16T07:33:17.196Z,5.57
2022-08-16T07:35:50.882Z,5.57
2022-08-16T07:38:33.948Z,5.93
2022-08-16T07:41:11.773Z,5.60
2022-08-16T07:43:40.374Z,5.70
2022-08-16T07:46:38.589Z,5.53
2022-08-16T07:49:03.159Z,6.00
2022-08-16T07:51:47.996Z,5.33
2022-08-16T07:54:32.127Z,5.50
2022-08-16T07:57:11.466Z,5.50
2022-08-16T07:59:45.873Z,5.73
2022-08-16T08:02:19.804Z,5.50
2022-08-16T08:04:53.647Z,5.60
2022-08-16T08:07:29.306Z,5.60
2022-08-16T08:10:03.918Z,5.50
2022-08-16T08:12:36.200Z,6.10
2022-08-16T08:15:10.588Z,5.90
2022-08-16T08:17:42.934Z,5.40
2022-08-16T08:20:20.688Z,5.73
2022-08-16T08:23:01.633Z,5.47
2022-08-16T08:25:55.359Z,5.40
2022-08-16T08:28:25.810Z,6.03
2022-08-16T08:31:00.690Z,5.47
2022-08-16T08:33:34.135Z,6.03
2022-08-16T08:36:09.293Z,5.60
2022-08-16T08:38:45.667Z,5.40
2022-08-16T08:41:18.275Z,5.90
2022-08-16T08:43:53.890Z,5.67
2022-08-16T08:46:26.377Z,5.87
2022-08-16T08:49:02.411Z,5.73
2022-08-16T08:51:36.799Z,6.77
2022-08-16T08:54:10.979Z,6.57
2022-08-16T08:56:45.990Z,6.50
2022-08-16T08:59:20.244Z,6.87
2022-08-16T09:01:56.326Z,6.63
2022-08-16T09:04:31.258Z,6.30
2022-08-16T09:07:01.242Z,6.50
2022-08-16T09:09:33.462Z,5.97
2022-08-16T09:12:06.759Z,5.80
2022-08-16T09:14:50.848Z,5.90
2022-08-16T09:17:38.174Z,5.83
2022-08-16T09:20:20.423Z,5.23
2022-08-16T09:22:54.481Z,5.07
2022-08-16T09:25:33.957Z,5.00
2022-08-16T09:28:08.801Z,5.10
2022-08-16T09:30:43.265Z,5.00
2022-08-16T09:33:21.528Z,4.73
2022-08-16T09:35:54.627Z,5.00
2022-08-16T09:38:32.208Z,4.40
2022-08-16T09:41:04.324Z,4.57
2022-08-16T09:43:58.648Z,4.50
2022-08-16T09:46:33.403Z,4.00
2022-08-16T09:49:19.662Z,4.10
2022-08-16T09:52:04.030Z,4.10
2022-08-16T09:54:36.023Z,4.27
2022-08-16T09:57:05.336Z,4.30
2022-08-16T09:59:38.486Z,4.00
2022-08-16T10:02:27.367Z,3.97
2022-08-16T10:05:12.272Z,3.73
2022-08-16T10:07:49.855Z,4.00
2022-08-16T10:10:30.638Z,3.77
2022-08-16T10:13:12.157Z,3.93
2022-08-16T10:15:55.521Z,3.90
2022-08-16T10:19:00.166Z,3.80
2022-08-16T10:21:32.330Z,4.10
2022-08-16T10:24:02.477Z,4.17
2022-08-16T10:27:16.137Z,3.80
2022-08-16T10:30:00.708Z,3.83
2022-08-16T10:32:23.247Z,3.83
2022-08-16T10:34:55.777Z,3.90
2022-08-16T10:37:35.805Z,3.80
2022-08-16T10:40:28.419Z,4.00
2022-08-16T10:43:01.027Z,3.73
2022-08-16T10:45:36.544Z,3.70
2022-08-16T10:48:27.565Z,3.37
2022-08-16T10:51:00.336Z,3.33
2022-08-16T10:56:55.828Z,3.40
2022-08-16T11:05:10.581Z,3.17
2022-08-16T11:07:51.964Z,3.30
2022-08-16T11:19:12.106Z,3.20
2022-08-16T11:24:45.041Z,2.73
2022-08-16T11:27:23.020Z,3.17
2022-08-16T11:29:58.634Z,3.10
2022-08-16T11:32:32.201Z,2.90
2022-08-16T11:35:17.952Z,2.80
2022-08-16T11:38:46.446Z,2.93
2022-08-16T11:41:16.683Z,2.57
2022-08-16T11:43:51.924Z,2.90
2022-08-16T11:46:44.691Z,2.70
2022-08-16T11:49:20.138Z,2.90
2022-08-16T11:51:53.237Z,2.83
2022-08-16T11:54:33.121Z,2.77
2022-08-16T11:57:30.690Z,2.47
2022-08-16T12:00:01.120Z,3.20
2022-08-16T12:02:33.156Z,2.87
2022-08-16T12:05:04.974Z,2.70
2022-08-16T12:07:36.509Z,2.67
2022-08-16T12:10:37.575Z,3.10
2022-08-16T12:13:10.308Z,3.03
2022-08-16T12:15:39.780Z,2.83
2022-08-16T12:18:10.256Z,2.80
2022-08-16T12:20:42.800Z,2.90
2022-08-16T12:23:17.423Z,3.00
2022-08-16T12:25:47.643Z,2.60
2022-08-16T12:28:37.079Z,2.90
2022-08-16T12:33:57.951Z,2.33
2022-08-16T12:36:31.609Z,2.87
2022-08-16T12:39:03.419Z,2.70
2022-08-16T12:41:35.312Z,2.83
2022-08-16T12:44:07.810Z,2.97
2022-08-16T12:46:38.869Z,2.57
2022-08-16T12:49:11.526Z,2.67
2022-08-16T12:51:59.797Z,2.60
2022-08-16T12:54:31.298Z,2.57
2022-08-16T12:57:05.321Z,2.47
2022-08-16T12:59:43.308Z,2.67
2022-08-16T13:02:22.915Z,3.10
2022-08-16T13:05:09.489Z,2.80
2022-08-16T13:07:51.415Z,2.93
2022-08-16T13:10:38.083Z,2.57
2022-08-16T13:13:13.278Z,2.90
2022-08-16T13:15:55.427Z,2.70
2022-08-16T13:21:17.075Z,2.80
2022-08-16T13:23:47.357Z,2.77
2022-08-16T13:26:24.452Z,3.10
2022-08-16T13:29:02.493Z,2.63
2022-08-16T13:31:31.881Z,2.87
2022-08-16T13:34:09.239Z,2.63
2022-08-16T13:36:48.756Z,3.00
2022-08-16T13:39:20.478Z,2.50
2022-08-16T13:41:54.061Z,2.80
2022-08-16T13:44:48.724Z,2.90
2022-08-16T13:47:18.071Z,2.83
2022-08-16T13:49:54.644Z,2.70
2022-08-16T13:52:33.492Z,2.83
2022-08-16T13:55:06.830Z,2.57
2022-08-16T13:58:26.765Z,2.87
2022-08-16T14:00:39.890Z,2.60
2022-08-16T14:03:09.157Z,2.43
2022-08-16T14:05:40.932Z,2.70
2022-08-16T14:08:14.448Z,2.67
2022-08-16T14:10:46.705Z,2.50
2022-08-16T14:13:21.736Z,2.57
2022-08-16T14:15:54.844Z,2.67
2022-08-16T14:18:30.981Z,2.83
2022-08-16T14:21:04.405Z,2.63
2022-08-16T14:23:36.704Z,2.70
2022-08-16T14:26:09.656Z,2.50
2022-08-16T14:28:42.536Z,2.50
2022-08-16T14:31:13.759Z,2.60
2022-08-16T14:33:44.942Z,2.73
2022-08-16T14:36:29.459Z,2.60
2022-08-16T14:39:03.326Z,2.47
2022-08-16T14:41:33.192Z,2.63
2022-08-16T14:44:06.237Z,2.80
2022-08-16T14:46:37.086Z,2.73
2022-08-16T14:49:09.592Z,2.77
2022-08-16T14:51:38.446Z,2.70
2022-08-16T14:54:11.337Z,2.40
2022-08-16T14:56:43.318Z,2.63
2022-08-16T14:59:27.645Z,2.67
2022-08-16T15:02:01.003Z,2.50
2022-08-16T15:04:40.259Z,2.80
2022-08-16T15:07:23.886Z,2.87
2022-08-16T15:10:00.400Z,2.60
2022-08-16T15:12:33.555Z,2.60
2022-08-16T15:15:16.641Z,2.47
2022-08-16T15:17:54.186Z,2.70
2022-08-16T15:20:29.442Z,2.80
2022-08-16T15:23:00.031Z,2.63
2022-08-16T15:25:32.007Z,2.67
2022-08-16T15:28:06.739Z,3.00
2022-08-16T15:30:59.357Z,2.27
2022-08-16T15:33:32.059Z,2.90
2022-08-16T15:36:07.808Z,2.57
2022-08-16T15:39:05.885Z,2.67
2022-08-16T15:41:50.196Z,2.60
2022-08-16T15:44:25.621Z,2.60
2022-08-16T15:46:59.896Z,2.80
2022-08-16T15:49:37.521Z,2.90
2022-08-16T15:52:38.509Z,2.60
2022-08-16T15:55:23.816Z,2.73
2022-08-16T15:58:34.995Z,2.67
2022-08-16T16:01:05.419Z,2.87
2022-08-16T16:03:38.719Z,2.90
2022-08-16T16:06:10.918Z,2.40
2022-08-16T16:08:45.638Z,2.57
2022-08-16T16:11:16.196Z,2.73
2022-08-16T16:13:49.284Z,2.97
2022-08-16T16:16:27.753Z,2.67
2022-08-16T16:21:46.708Z,2.87
2022-08-16T16:24:30.811Z,2.77
2022-08-16T16:27:02.263Z,2.93
2022-08-16T16:29:37.195Z,2.83
2022-08-16T16:32:12.377Z,2.50
2022-08-16T16:34:44.030Z,2.70
2022-08-16T16:40:01.312Z,3.00
2022-08-16T16:42:40.444Z,2.80
2022-08-16T16:45:16.376Z,2.67
2022-08-16T16:47:54.326Z,2.80
2022-08-16T16:50:32.930Z,2.70
2022-08-16T16:53:17.232Z,2.80
2022-08-16T16:55:52.129Z,2.87
2022-08-16T16:58:40.483Z,2.67
2022-08-16T17:01:10.957Z,2.63
2022-08-16T17:03:41.916Z,2.70
2022-08-16T17:06:13.811Z,2.83
2022-08-16T17:08:47.905Z,2.60
2022-08-16T17:11:21.085Z,2.60
2022-08-16T17:13:53.439Z,2.70
2022-08-16T17:16:24.092Z,2.97
2022-08-16T17:19:19.046Z,3.00
2022-08-16T17:21:49.395Z,2.47
2022-08-16T17:24:25.794Z,2.57
2022-08-16T17:27:06.417Z,2.50
2022-08-16T17:29:42.619Z,2.67
2022-08-16T17:32:47.064Z,2.37
2022-08-16T17:35:20.544Z,2.73
2022-08-16T17:39:27.327Z,2.77
2022-08-16T17:40:52.097Z,2.63
2022-08-16T17:43:36.127Z,3.03
2022-08-16T17:46:41.794Z,3.20
2022-08-16T17:49:00.257Z,2.60
2022-08-16T17:51:32.678Z,2.67
2022-08-16T17:54:05.808Z,2.83
2022-08-16T17:56:36.135Z,3.33
2022-08-16T17:59:08.131Z,3.10
2022-08-16T18:04:48.828Z,3.07
2022-08-16T18:07:14.441Z,3.10
2022-08-16T18:12:55.535Z,2.53
2022-08-16T18:15:19.676Z,3.10
2022-08-16T18:17:53.116Z,2.67
2022-08-16T18:20:43.426Z,2.87
2022-08-16T18:23:17.885Z,3.13
2022-08-16T18:25:57.511Z,2.63
2022-08-16T18:28:28.327Z,2.80
2022-08-16T18:31:01.104Z,2.73
2022-08-16T18:33:43.654Z,2.77
2022-08-16T18:36:20.584Z,2.90
2022-08-16T18:38:54.631Z,3.07
2022-08-16T18:41:26.510Z,2.80
2022-08-16T18:44:25.358Z,2.60
2022-08-16T18:46:50.946Z,2.70
2022-08-16T18:49:24.537Z,2.53
2022-08-16T18:51:59.267Z,2.97
2022-08-16T18:54:33.441Z,2.80
2022-08-16T18:57:07.850Z,2.73
2022-08-16T18:59:38.759Z,2.73
2022-08-16T19:02:09.390Z,2.50
2022-08-16T19:05:05.320Z,2.70
2022-08-16T19:07:35.793Z,2.87
2022-08-16T19:10:07.511Z,2.70
2022-08-16T19:12:42.244Z,2.87
2022-08-16T19:15:19.310Z,2.80
2022-08-16T19:17:50.996Z,2.90
2022-08-16T19:20:25.079Z,2.70
2022-08-16T19:23:09.835Z,3.00
2022-08-16T19:25:48.347Z,2.50
2022-08-16T19:28:57.996Z,2.63
2022-08-16T19:31:15.099Z,2.80
2022-08-16T19:33:54.432Z,2.30
2022-08-16T19:36:31.140Z,2.90
2022-08-16T19:39:13.776Z,2.70
2022-08-16T19:41:43.577Z,2.70
2022-08-16T19:44:14.157Z,2.70
2022-08-16T19:46:49.612Z,2.53
2022-08-16T19:49:24.625Z,2.60
2022-08-16T19:51:55.498Z,2.73
2022-08-16T19:54:23.338Z,2.60
2022-08-16T19:56:55.713Z,2.73
2022-08-16T19:59:40.279Z,2.50
2022-08-16T20:02:10.047Z,2.70
2022-08-16T20:07:45.854Z,2.90
2022-08-16T20:10:17.544Z,2.70
2022-08-16T20:12:58.363Z,2.90
2022-08-16T20:15:40.995Z,2.50
2022-08-16T20:18:21.303Z,2.73
2022-08-16T20:20:58.192Z,2.53
2022-08-16T20:23:28.606Z,2.40
2022-08-16T20:25:59.316Z,2.63
2022-08-16T20:28:44.010Z,2.80
2022-08-16T20:31:18.593Z,2.57
2022-08-16T20:33:48.774Z,2.53
2022-08-16T20:36:18.027Z,2.47
2022-08-16T20:38:55.266Z,2.80
2022-08-16T20:41:22.754Z,2.93
2022-08-16T20:43:55.253Z,2.97
2022-08-16T20:46:33.631Z,2.77
2022-08-16T20:49:11.981Z,3.10
2022-08-16T20:51:49.549Z,3.27
2022-08-16T20:54:20.400Z,3.27
2022-08-16T20:56:53.949Z,2.90
2022-08-16T20:59:25.824Z,2.93
2022-08-16T21:01:55.895Z,2.70
2022-08-16T21:04:33.519Z,2.90
2022-08-16T21:07:05.550Z,2.83
2022-08-16T21:09:40.483Z,3.00
2022-08-16T21:12:13.738Z,2.97
2022-08-16T21:14:48.809Z,3.10
2022-08-16T21:17:23.049Z,2.77
2022-08-16T21:19:54.689Z,2.63
2022-08-16T21:25:15.940Z,2.93
2022-08-16T21:28:41.999Z,2.97
2022-08-16T21:30:49.560Z,2.83
2022-08-16T21:33:22.327Z,3.00
2022-08-16T21:35:56.119Z,2.67
2022-08-16T21:38:30.875Z,2.70
2022-08-16T21:41:04.117Z,2.63
2022-08-16T21:43:36.334Z,2.90
2022-08-16T21:46:08.769Z,3.00
2022-08-16T21:48:43.409Z,3.30
2022-08-16T21:51:17.044Z,4.40
2022-08-16T21:53:52.454Z,3.87
2022-08-16T21:56:25.596Z,3.60
2022-08-16T21:58:59.180Z,3.80
2022-08-16T22:01:31.705Z,4.50
2022-08-16T22:04:35.693Z,4.43
2022-08-16T22:06:52.269Z,5.03
2022-08-16T22:09:24.358Z,5.70
2022-08-16T22:11:52.866Z,5.53
2022-08-16T22:14:24.176Z,4.83
2022-08-16T22:16:57.238Z,5.37
2022-08-16T22:19:28.880Z,5.30
2022-08-16T22:21:56.409Z,5.27
2022-08-16T22:24:28.196Z,5.50
2022-08-16T22:27:02.204Z,5.50
2022-08-16T22:29:35.140Z,5.60
2022-08-16T22:32:08.286Z,5.60
2022-08-16T22:34:39.118Z,5.43
2022-08-16T22:37:13.781Z,5.70
2022-08-16T22:39:46.573Z,6.30
2022-08-16T22:42:20.697Z,5.57
2022-08-16T22:44:54.316Z,5.43
2022-08-16T22:47:22.928Z,5.60
2022-08-16T22:49:55.439Z,6.07
2022-08-16T22:52:55.983Z,6.20
2022-08-16T22:55:18.469Z,6.20
2022-08-16T22:57:49.143Z,6.57
2022-08-16T23:00:20.208Z,5.90
2022-08-16T23:03:06.114Z,6.60
2022-08-16T23:05:55.120Z,5.90
2022-08-16T23:08:33.647Z,6.67
2022-08-16T23:11:10.032Z,6.50
2022-08-16T23:13:53.241Z,6.63
2022-08-16T23:16:39.530Z,6.47
2022-08-16T23:19:12.843Z,6.83
2022-08-16T23:21:45.509Z,6.63
2022-08-16T23:24:16.831Z,7.07
2022-08-16T23:26:48.975Z,6.87
2022-08-16T23:29:23.929Z,7.10
2022-08-16T23:32:02.423Z,6.77
2022-08-16T23:34:36.133Z,6.90
2022-08-16T23:37:07.935Z,6.83
2022-08-16T23:39:37.741Z,7.27
2022-08-16T23:42:53.235Z,7.30
2022-08-16T23:45:10.521Z,7.03
2022-08-16T23:47:39.837Z,7.20
2022-08-16T23:50:12.952Z,7.27
2022-08-16T23:52:59.299Z,7.60
2022-08-16T23:55:28.396Z,7.80
2022-08-16T23:58:00.783Z,7.57
